HKMO/MBA METAR and TAF weather

Enter ICAO airport designator
Station Type Date Time Source
HKMO METAR 2022/12/10 01:30 UTC NOAA

HKMO 100130Z VRB02KT 9999 FEW022 25/23 Q1011 NOSIG


Station Type Date Time Source
HKMO Decoded METAR 2022/12/10 01:30 UTC NOAA

Mombasa, Kenya (HKMO) 04-02S 039-37E 55M
Dec 09, 2022 - 08:30 PM EST / 2022.12.10 0130 UTC
Wind: Variable at 2 MPH (2 KT):0
Visibility: greater than 7 mile(s):0
Sky conditions: mostly clear
Temperature: 77 F (25 C)
Dew Point: 73 F (23 C)
Relative Humidity: 88%
Pressure (altimeter): 29.85 in. Hg (1011 hPa)
ob: HKMO 100130Z VRB02KT 9999 FEW022 25/23 Q1011 NOSIG
cycle: 1

Station Type Date Time Source
HKMO TAF 2022/12/09 18:18 UTC NOAA

TAF TAF HKMO 091700Z 0918/1024 10010KT 9999 FEW023
BECMG 1000/1003 00000KT FEW020
BECMG 1009/1012 11010KT FEW026

Example: see airport list